Cadillac, MI (49601)

5:24 PM EST on December 28, 2014 (GMT -0500)
North Shore Lake Mitchell | Change Station
CLOSE
Current Station
Personal Weather Station
Location: Cadillac, MI
Elevation: 1296 ft
Nearby Weather Stations

Elev 1296 ft 44.26 °N, 85.50 °W | Updated 0 second ago

Overcast
Overcast
25.8 °F
Feels Like 26 °F
N
1.0
Wind Variable Wind from West
Gusts 7.0 mph

Today
High -- | Low -- °F
--% Chance of Precip.
Yesterday
High -- | Low -- °F
Precip. -- in
8:16 AM 5:10 PM
First Quarter, 52% visible
Pressure 30.08 in
Visibility 10.0 miles
Clouds Overcast 3000 ft
Windchill 26 °F
Dew Point 20 °F
Humidity 79%
Rainfall 0.00 in
Snow Depth Not available.
UV 0 out of 12
Pollen .10 out of 12
Air Quality Not available.
Flu Activity Not available.
METAR KCAD 282214Z AUTO 26009KT 10SM OVC030 M03/M08 A3008 RMK AO2 T10371082

More Conditions Fewer Conditions

Pressure 30.08 in
Visibility 10.0 miles
Clouds Overcast 3000 ft
Windchill 26 °F
Dew Point 20 °F
Humidity 79%
Rainfall 0.00 in
Snow Depth Not available.
UV 0 out of 12
Pollen .10 out of 12
Air Quality Not available.
Flu Activity Not available.
METAR KCAD 282214Z AUTO 26009KT 10SM OVC030 M03/M08 A3008 RMK AO2 T10371082

More Conditions Fewer Conditions

Nowcast | as of 5:00 PM EST on December 28, 2014

At 6 PM...mostly cloudy. Scattered flurries. Temperature 26. West winds 7 mph. At 8 PM...mostly cloudy. Scattered snow showers. Temperature 23. Northwest winds 7 mph. At 10 PM...mostly cloudy. Scattered snow showers. Temperature 21. Northwest winds 7 mph. At 12 am...mostly cloudy. Scattered snow showers. Temperature 20. North winds 7 mph.

×

10-Day Weather Forecast

Almanac

Astronomy

Dec. 28, 2014 Rise Set
Actual Time
Civil Twilight
Nautical Twilight
Astronomical Twilight
Moon
Length of Visible Light
Length of Day
Tomorrow will be .
, % of the Moon is Illuminated

Today's Extremes

State Highs State Lows

Community

WunderPhotos

Upload Photos

1,781,446 photos uploaded!

WunderBlogs® & News

Nearby

Air Quality

  Air Quality AQ Index Pollutant
Not available.

Snow Depth

Station Depth Elevation

Earthquake Activity

City Distance Mag. Time & Date
Minimum magnitude displayed is 2.5.

Coastal Water Temperatures

Place Temperature

Nearby Weather Stations